Time;durP1;ratioP1;P1;durP2;ratioP2;P2;SDS_P1;SDS_P2;PMS_P1;PMS_P2;Temp;Humidity;BMP_temperature;BMP_pressure;BME280_temperature;BME280_humidity;BME280_pressure;Samples;Min_cycle;Max_cycle;Signal;HPM_P1;HPM_P2
2022/02/04 00:07:01;;;;;;;;;;;8.50;99.90;;;6.50;100.00;100215.88;5046768;28;19929;-81
2022/02/04 00:20:39;;;;;;;;;;;8.50;99.90;;;6.54;100.00;100217.22;5092906;28;19928;-81
2022/02/04 00:23:12;;;;;;;;;;;8.50;99.90;;;6.61;100.00;100215.56;5087871;28;20106;-82
2022/02/04 00:25:55;;;;;;;;;;;8.50;99.90;;;6.60;100.00;100221.97;5072844;28;19928;-81
2022/02/04 00:28:31;;;;;;;;;;;8.50;99.90;;;6.53;100.00;100214.69;5075103;28;20393;-81
2022/02/04 00:31:11;;;;;;;;;;;8.50;99.90;;;6.50;100.00;100215.88;5071993;28;19928;-81
2022/02/04 00:33:42;;;;;;;;;;;8.50;99.90;;;6.51;100.00;100209.47;5079704;28;19928;-81
2022/02/04 00:36:14;;;;;;;;;;;8.50;99.90;;;6.52;100.00;100213.84;5092823;28;19928;-81
2022/02/04 00:38:48;;;;;;;;;;;8.50;99.90;;;6.44;100.00;100222.78;5084426;28;19925;-81
2022/02/04 00:41:19;;;;;;;;;;;8.50;99.90;;;6.50;100.00;100220.44;5072310;28;19932;-81
2022/02/04 00:43:48;;;;;;;;;;;8.50;99.90;;;6.50;100.00;100215.03;5079478;28;19928;-81
2022/02/04 00:46:20;;;;;;;;;;;8.50;99.90;;;6.52;100.00;100213.84;5074147;28;19979;-81
2022/02/04 00:48:57;;;;;;;;;;;8.50;99.90;;;6.55;100.00;100208.13;5084816;28;19932;-81
2022/02/04 00:51:30;;;;;;;;;;;8.50;99.90;;;6.61;100.00;100218.25;5072128;28;19929;-81
2022/02/04 00:54:11;;;;;;;;;;;8.50;99.90;;;6.60;100.00;100210.31;5074469;28;19931;-82
2022/02/04 00:56:46;;;;;;;;;;;8.40;99.90;;;6.44;100.00;100206.56;5088548;28;20196;-81
2022/02/04 01:13:16;;;;;;;;;;;8.50;99.90;;;6.54;100.00;100190.19;5074128;28;19939;-81
2022/02/04 01:27:01;;;;;;;;;;;8.50;99.90;;;6.42;100.00;100191.53;5091812;28;19928;-81
2022/02/04 01:29:34;;;;;;;;;;;8.50;99.90;;;6.45;100.00;100191.19;5084365;28;19939;-81
2022/02/04 01:32:01;;;;;;;;;;;8.60;99.90;;;6.44;100.00;100201.16;5071314;28;19929;-81
2022/02/04 01:34:28;;;;;;;;;;;8.50;99.90;;;6.53;100.00;100195.75;5059181;28;20635;-81
2022/02/04 01:36:56;;;;;;;;;;;8.60;99.90;;;6.51;100.00;100200.47;5091678;28;20392;-81
2022/02/04 01:39:23;;;;;;;;;;;8.50;99.90;;;6.53;100.00;100198.47;5085925;28;19928;-81
2022/02/04 01:41:50;;;;;;;;;;;8.50;99.90;;;6.55;100.00;100191.03;5071426;28;19932;-81
2022/02/04 01:44:21;;;;;;;;;;;8.50;99.90;;;6.50;100.00;100191.53;5074513;28;19931;-81
2022/02/04 01:46:49;;;;;;;;;;;8.50;99.90;;;6.51;100.00;100189.66;5091532;28;19934;-81
2022/02/04 01:49:16;;;;;;;;;;;8.50;99.90;;;6.46;100.00;100188.31;5088491;28;19981;-81
2022/02/04 01:51:48;;;;;;;;;;;8.50;99.90;;;6.56;100.00;100188.16;5071510;28;19931;-81
2022/02/04 01:54:17;;;;;;;;;;;8.50;99.90;;;6.53;100.00;100183.09;5088814;28;19934;-81
2022/02/04 01:56:44;;;;;;;;;;;8.50;99.90;;;6.50;100.00;100178.03;5052835;28;19928;-81
2022/02/04 01:59:11;;;;;;;;;;;8.50;99.90;;;6.51;100.00;100173.44;5070779;28;19932;-81
2022/02/04 02:01:38;;;;;;;;;;;8.50;99.90;;;6.55;100.00;100177.50;5076037;28;19928;-81
2022/02/04 02:04:09;;;;;;;;;;;8.50;99.90;;;6.54;100.00;100173.97;5091096;28;20072;-81
2022/02/04 02:06:50;;;;;;;;;;;8.50;99.90;;;6.56;100.00;100165.69;5086105;28;20435;-81
2022/02/04 02:12:02;;;;;;;;;;;8.50;99.90;;;6.58;100.00;100156.38;5034213;28;19947;-85
2022/02/04 02:14:31;;;;;;;;;;;8.50;99.90;;;6.56;100.00;100157.59;5050771;28;20423;-85
2022/02/04 02:33:51;;;;;;;;;;;8.50;99.90;;;6.57;100.00;100145.78;5050110;28;19931;-85
2022/02/04 02:37:01;;;;;;;;;;;8.50;99.90;;;6.50;100.00;100145.56;5049782;28;19931;-85
2022/02/04 02:42:25;;;;;;;;;;;8.50;99.90;;;6.64;100.00;100135.94;4992388;28;19979;-85
2022/02/04 02:45:00;;;;;;;;;;;8.50;99.90;;;6.67;100.00;100141.03;5030577;28;20583;-85
2022/02/04 02:47:39;;;;;;;;;;;8.50;99.90;;;6.65;100.00;100151.19;5031374;28;20019;-85
2022/02/04 02:50:37;;;;;;;;;;;8.50;99.90;;;6.63;100.00;100150.50;5030183;28;19929;-85
2022/02/04 02:56:19;;;;;;;;;;;8.50;99.90;;;6.62;100.00;100157.75;4997225;28;20412;-86
2022/02/04 02:58:51;;;;;;;;;;;8.50;99.90;;;6.62;100.00;100148.78;5008822;28;20404;-86
2022/02/04 03:01:18;;;;;;;;;;;8.50;99.90;;;6.65;100.00;100154.72;5020805;28;19935;-85
2022/02/04 03:03:51;;;;;;;;;;;8.50;99.90;;;6.60;100.00;100146.25;5030328;28;19935;-85
2022/02/04 03:06:18;;;;;;;;;;;8.50;99.90;;;6.68;100.00;100147.28;5017414;28;20339;-85
2022/02/04 03:08:45;;;;;;;;;;;8.50;99.90;;;6.64;100.00;100152.19;5020586;28;19929;-85
2022/02/04 03:11:14;;;;;;;;;;;8.50;99.90;;;6.63;100.00;100145.94;5033690;28;19995;-85
2022/02/04 03:13:42;;;;;;;;;;;8.50;99.90;;;6.64;100.00;100153.03;5049840;28;20460;-85
2022/02/04 03:16:11;;;;;;;;;;;8.50;99.90;;;6.62;100.00;100149.63;5048018;28;19925;-85
2022/02/04 03:18:42;;;;;;;;;;;8.50;99.90;;;6.67;100.00;100151.00;5049540;28;19924;-85
2022/02/04 03:21:13;;;;;;;;;;;8.50;99.90;;;6.68;100.00;100136.47;5035279;28;19983;-85
2022/02/04 03:23:44;;;;;;;;;;;8.50;99.90;;;6.67;100.00;100145.59;5045005;28;19937;-85
2022/02/04 03:26:18;;;;;;;;;;;8.50;99.90;;;6.67;100.00;100137.50;5043237;28;19946;-85
2022/02/04 03:28:47;;;;;;;;;;;8.50;99.90;;;6.61;100.00;100133.59;5049246;28;19928;-85
2022/02/04 03:31:14;;;;;;;;;;;8.50;99.90;;;6.61;100.00;100130.91;5035395;28;20439;-85
2022/02/04 03:33:43;;;;;;;;;;;8.50;99.90;;;6.63;100.00;100113.47;5029581;28;19936;-85
2022/02/04 03:36:11;;;;;;;;;;;8.50;99.90;;;6.68;100.00;100112.97;5023924;28;19936;-85
2022/02/04 03:38:38;;;;;;;;;;;8.50;99.90;;;6.62;100.00;100122.59;5049342;28;19929;-85
2022/02/04 03:41:07;;;;;;;;;;;8.50;99.90;;;6.64;100.00;100107.06;5020096;28;19936;-85
2022/02/04 03:43:35;;;;;;;;;;;8.50;99.90;;;6.72;100.00;100117.03;5029482;28;19932;-85
2022/02/04 03:46:05;;;;;;;;;;;8.50;99.90;;;6.71;100.00;100103.69;5039554;28;20739;-85
2022/02/04 03:48:32;;;;;;;;;;;8.50;99.90;;;6.78;100.00;100116.34;5034496;28;19932;-85
2022/02/04 03:50:59;;;;;;;;;;;8.50;99.90;;;6.81;100.00;100105.19;5049170;28;19975;-85
2022/02/04 03:53:26;;;;;;;;;;;8.50;99.90;;;6.78;100.00;100099.28;5028207;28;20381;-85
2022/02/04 03:55:53;;;;;;;;;;;8.50;99.90;;;6.78;100.00;100094.72;5041038;28;20031;-85
2022/02/04 03:58:20;;;;;;;;;;;8.50;99.90;;;6.70;100.00;100099.28;5047138;28;20027;-85
2022/02/04 04:00:47;;;;;;;;;;;8.60;99.90;;;6.62;100.00;100100.97;5029104;28;20328;-85
2022/02/04 04:03:16;;;;;;;;;;;8.60;99.90;;;6.70;100.00;100101.97;5029199;28;19931;-85
2022/02/04 04:05:46;;;;;;;;;;;8.60;99.90;;;6.72;100.00;100089.13;5031684;28;20675;-85
2022/02/04 04:08:17;;;;;;;;;;;8.60;99.90;;;6.66;100.00;100090.66;5028875;28;19956;-85
2022/02/04 04:10:44;;;;;;;;;;;8.60;99.90;;;6.73;100.00;100088.97;5022603;28;19979;-85
2022/02/04 04:13:13;;;;;;;;;;;8.60;99.90;;;6.69;100.00;100089.50;5011423;28;19936;-85
2022/02/04 04:15:40;;;;;;;;;;;8.60;99.90;;;6.75;100.00;100088.81;5028641;28;19924;-85
2022/02/04 04:18:12;;;;;;;;;;;8.60;99.90;;;6.66;100.00;100085.25;5039413;28;20007;-85
2022/02/04 04:20:41;;;;;;;;;;;8.60;99.90;;;6.65;100.00;100079.00;5029054;28;19972;-85
2022/02/04 04:23:08;;;;;;;;;;;8.60;99.90;;;6.73;100.00;100096.25;5028926;28;19968;-85
2022/02/04 04:25:36;;;;;;;;;;;8.60;99.90;;;6.72;100.00;100090.00;5044948;28;20344;-85
2022/02/04 04:28:03;;;;;;;;;;;8.60;99.90;;;6.72;100.00;100086.44;5048564;28;19929;-85
2022/02/04 04:30:37;;;;;;;;;;;8.50;99.90;;;6.70;100.00;100096.56;5032718;28;19936;-86
2022/02/04 04:33:04;;;;;;;;;;;8.60;99.90;;;6.71;100.00;100098.28;5010886;28;20348;-85
2022/02/04 04:35:31;;;;;;;;;;;8.60;99.90;;;6.73;100.00;100098.94;5015074;28;19929;-85
2022/02/04 04:38:06;;;;;;;;;;;8.60;99.90;;;6.74;100.00;100104.19;5028567;28;19948;-85
2022/02/04 04:40:42;;;;;;;;;;;8.60;99.90;;;6.75;100.00;100095.06;5033846;28;20337;-85
2022/02/04 04:43:24;;;;;;;;;;;8.60;99.90;;;6.76;100.00;100095.88;5048724;28;19924;-85
2022/02/04 04:46:29;;;;;;;;;;;8.60;99.90;;;6.69;100.00;100100.31;5032274;28;20305;-85
2022/02/04 05:28:12;;;;;;;;;;;8.60;99.90;;;6.85;100.00;100074.09;4998810;28;19929;-83
2022/02/04 05:30:39;;;;;;;;;;;8.60;99.90;;;6.84;100.00;100066.97;5031850;28;20749;-83
2022/02/04 05:33:06;;;;;;;;;;;8.60;99.90;;;6.83;100.00;100064.44;5031575;28;19933;-83
2022/02/04 05:35:33;;;;;;;;;;;8.60;99.90;;;6.84;100.00;100056.16;5048526;28;19929;-83
2022/02/04 05:38:02;;;;;;;;;;;8.60;99.90;;;6.87;100.00;100064.94;5051385;28;19929;-82
2022/02/04 05:40:37;;;;;;;;;;;8.60;99.90;;;6.84;100.00;100063.44;5034951;28;19929;-82
2022/02/04 05:43:15;;;;;;;;;;;8.60;99.90;;;6.84;100.00;100066.16;5031366;28;19951;-82
2022/02/04 05:45:51;;;;;;;;;;;8.70;99.90;;;6.89;100.00;100079.97;5048491;28;19940;-83
2022/02/04 05:48:18;;;;;;;;;;;8.60;99.90;;;6.91;100.00;100072.56;5050070;28;20382;-82
2022/02/04 05:51:05;;;;;;;;;;;8.60;99.90;;;6.87;100.00;100064.94;5029097;28;19925;-82
2022/02/04 05:53:38;;;;;;;;;;;8.60;99.90;;;6.89;100.00;100066.47;5051409;28;20177;-82
2022/02/04 05:56:15;;;;;;;;;;;8.60;99.90;;;6.96;100.00;100063.91;5031818;28;19936;-81
2022/02/04 05:58:50;;;;;;;;;;;8.60;99.90;;;6.97;100.00;100069.16;5031012;28;19936;-82
2022/02/04 06:01:32;;;;;;;;;;;8.60;99.90;;;6.97;100.00;100060.22;5045277;28;20700;-82
2022/02/04 06:04:13;;;;;;;;;;;8.60;99.90;;;6.95;100.00;100057.69;5050008;28;20020;-82
2022/02/04 06:07:06;;;;;;;;;;;8.60;99.90;;;6.88;100.00;100045.84;5031142;28;19929;-82
2022/02/04 06:12:39;;;;;;;;;;;8.70;99.90;;;6.89;100.00;100047.53;5050693;28;20335;-82
2022/02/04 06:23:20;;;;;;;;;;;8.70;99.90;;;6.92;100.00;100040.94;5030690;28;19961;-82
2022/02/04 06:25:47;;;;;;;;;;;8.70;99.90;;;6.85;100.00;100043.47;5035904;28;19951;-82
2022/02/04 06:28:15;;;;;;;;;;;8.70;99.90;;;6.84;100.00;100037.22;5050059;28;19936;-82
2022/02/04 06:30:44;;;;;;;;;;;8.70;99.90;;;6.89;100.00;100041.28;5019923;28;19929;-82
2022/02/04 06:33:11;;;;;;;;;;;8.70;99.90;;;6.88;100.00;100034.19;5030440;28;19925;-82
2022/02/04 06:35:41;;;;;;;;;;;8.70;99.90;;;6.90;100.00;100027.59;5026334;28;19936;-82
2022/02/04 06:38:08;;;;;;;;;;;8.70;99.90;;;6.94;100.00;100031.63;5012956;28;20016;-81
2022/02/04 06:40:35;;;;;;;;;;;8.70;99.90;;;6.92;100.00;100030.13;5030250;28;20381;-81
2022/02/04 06:43:02;;;;;;;;;;;8.70;99.90;;;6.92;100.00;100025.53;5033048;28;19929;-82
2022/02/04 06:45:29;;;;;;;;;;;8.70;99.90;;;6.95;100.00;100035.16;5030351;28;19929;-82
2022/02/04 06:47:57;;;;;;;;;;;8.70;99.90;;;6.91;100.00;100033.81;5029961;28;19932;-81
2022/02/04 06:50:24;;;;;;;;;;;8.70;99.90;;;6.93;100.00;100037.19;5036350;28;19960;-82
2022/02/04 06:52:53;;;;;;;;;;;8.70;99.90;;;6.97;100.00;100025.03;5050082;28;19964;-82
2022/02/04 06:55:21;;;;;;;;;;;8.70;99.90;;;6.99;100.00;100026.56;5043183;28;19972;-81
2022/02/04 06:57:49;;;;;;;;;;;8.70;99.90;;;7.00;100.00;100032.78;5029702;28;19936;-82
2022/02/04 07:00:18;;;;;;;;;;;8.70;99.90;;;7.02;100.00;100028.88;5029837;28;19928;-82
2022/02/04 07:02:46;;;;;;;;;;;8.70;99.90;;;7.03;100.00;100032.47;5029823;28;19935;-82
2022/02/04 07:05:21;;;;;;;;;;;8.70;99.90;;;7.03;100.00;100033.28;5030992;28;20393;-87
2022/02/04 07:07:56;;;;;;;;;;;8.70;99.90;;;7.00;100.00;100044.44;5029392;28;19929;-86
2022/02/04 07:10:31;;;;;;;;;;;8.80;99.90;;;7.04;100.00;100051.22;5028004;28;19937;-84
2022/02/04 07:13:05;;;;;;;;;;;8.80;99.90;;;7.02;100.00;100045.13;5029219;28;19929;-84
2022/02/04 07:21:06;;;;;;;;;;;8.80;99.90;;;7.05;100.00;100052.91;5029229;28;19925;-84
2022/02/04 07:23:34;;;;;;;;;;;8.80;99.90;;;7.05;100.00;100066.44;5032954;28;19936;-85
2022/02/04 07:26:01;;;;;;;;;;;8.80;99.90;;;7.03;100.00;100054.94;5043254;28;20344;-84
2022/02/04 07:28:28;;;;;;;;;;;8.80;99.90;;;7.04;100.00;100039.53;5013666;28;20370;-84
2022/02/04 07:30:57;;;;;;;;;;;8.80;99.90;;;7.09;100.00;100039.03;5043823;28;20443;-84
2022/02/04 07:33:37;;;;;;;;;;;8.80;99.90;;;7.12;100.00;100044.09;5032480;28;19933;-84
2022/02/04 07:41:35;;;;;;;;;;;8.80;99.90;;;7.03;100.00;100032.47;5029279;28;19929;-83
2022/02/04 07:44:03;;;;;;;;;;;8.80;99.90;;;7.04;100.00;100013.34;5033281;28;19925;-83
2022/02/04 07:46:30;;;;;;;;;;;8.90;99.90;;;7.08;100.00;100023.81;5049171;28;19954;-83
2022/02/04 07:48:57;;;;;;;;;;;8.90;99.90;;;7.13;100.00;100026.84;5026065;28;20345;-82
2022/02/04 07:51:26;;;;;;;;;;;8.90;99.90;;;7.17;100.00;100017.34;5029408;28;19973;-83
2022/02/04 07:53:53;;;;;;;;;;;8.90;99.90;;;7.19;100.00;100018.03;5030365;28;19933;-83
2022/02/04 07:56:23;;;;;;;;;;;8.90;99.90;;;7.22;100.00;100017.69;5029323;28;19929;-83
2022/02/04 07:58:55;;;;;;;;;;;9.00;99.90;;;7.27;100.00;100012.56;5030000;28;19929;-83
2022/02/04 08:01:26;;;;;;;;;;;9.00;99.90;;;7.23;100.00;100019.34;5029084;28;20028;-83
2022/02/04 08:04:04;;;;;;;;;;;9.00;99.90;;;7.29;100.00;100020.50;5038383;28;20329;-83
2022/02/04 08:06:37;;;;;;;;;;;9.00;99.90;;;7.27;100.00;100020.69;5049201;28;19928;-83
2022/02/04 08:09:14;;;;;;;;;;;9.00;99.90;;;7.32;100.00;100020.19;5034530;28;20420;-83
2022/02/04 08:11:59;;;;;;;;;;;9.00;99.90;;;7.27;100.00;100026.09;5058197;22;19928;-86
2022/02/04 08:17:29;;;;;;;;;;;9.00;99.90;;;7.35;100.00;100017.97;5067813;28;19951;-86
2022/02/04 08:34:27;;;;;;;;;;;9.10;99.90;;;7.43;100.00;99996.25;5035316;28;19932;-86
2022/02/04 08:37:33;;;;;;;;;;;9.10;99.90;;;7.36;100.00;100007.97;5042324;28;20155;-86
2022/02/04 08:56:41;;;;;;;;;;;9.20;99.90;;;7.53;100.00;99995.19;5032333;28;20524;-87
2022/02/04 08:59:17;;;;;;;;;;;9.20;99.90;;;7.57;100.00;99986.53;5033061;28;19929;-87
2022/02/04 09:01:52;;;;;;;;;;;9.30;99.90;;;7.62;100.00;99986.00;5049230;28;20031;-87
2022/02/04 09:04:29;;;;;;;;;;;9.20;99.90;;;7.60;100.00;99985.34;5051570;28;20404;-86
2022/02/04 09:07:03;;;;;;;;;;;9.20;99.90;;;7.54;100.00;99996.88;5052041;28;20051;-87
2022/02/04 09:09:46;;;;;;;;;;;9.20;99.90;;;7.52;100.00;99982.66;5048372;28;19936;-86
2022/02/04 09:16:50;;;;;;;;;;;9.20;99.90;;;7.54;100.00;99984.19;5048681;28;20039;-85
2022/02/04 09:20:59;;;;;;;;;;;9.20;99.90;;;7.35;100.00;99971.94;5041653;28;19933;-86
2022/02/04 09:23:27;;;;;;;;;;;9.20;99.90;;;7.41;100.00;99965.81;5031750;28;19960;-86
2022/02/04 09:25:55;;;;;;;;;;;9.20;99.90;;;7.48;100.00;99965.09;5032824;28;19929;-86
2022/02/04 09:28:24;;;;;;;;;;;9.20;99.90;;;7.41;100.00;99963.09;5031310;28;19968;-86
2022/02/04 09:30:51;;;;;;;;;;;9.20;99.90;;;7.48;100.00;99967.81;5045941;28;19964;-87
2022/02/04 09:33:18;;;;;;;;;;;9.20;99.90;;;7.50;100.00;99954.94;5049899;28;19929;-86
2022/02/04 09:35:45;;;;;;;;;;;9.20;99.90;;;7.45;100.00;99955.47;5049274;28;20019;-86
2022/02/04 09:38:12;;;;;;;;;;;9.20;99.90;;;7.43;100.00;99947.53;5051270;28;19933;-86
2022/02/04 09:40:41;;;;;;;;;;;9.20;99.90;;;7.42;100.00;99951.28;5038718;28;19932;-86
2022/02/04 09:43:08;;;;;;;;;;;9.20;99.90;;;7.39;100.00;99946.22;5033467;28;20038;-86
2022/02/04 09:45:37;;;;;;;;;;;9.20;99.90;;;7.46;100.00;99942.78;5033755;28;20016;-86
2022/02/04 09:48:07;;;;;;;;;;;9.20;99.90;;;7.44;100.00;99937.53;5033980;28;19928;-87
2022/02/04 09:50:38;;;;;;;;;;;9.20;99.90;;;7.47;100.00;99941.78;5032511;28;20440;-87
2022/02/04 10:07:37;;;;;;;;;;;9.20;99.90;;;7.42;100.00;99924.22;5008051;28;19967;-86
2022/02/04 10:16:19;;;;;;;;;;;9.30;99.90;;;7.53;100.00;99908.56;5047166;28;19933;-86
2022/02/04 10:19:00;;;;;;;;;;;9.30;99.90;;;7.53;100.00;99908.56;5033880;28;19936;-87
2022/02/04 10:21:29;;;;;;;;;;;9.30;99.90;;;7.59;100.00;99903.25;5034309;28;20385;-86
2022/02/04 10:24:01;;;;;;;;;;;9.30;99.90;;;7.63;100.00;99903.72;5032274;28;19952;-86
2022/02/04 10:26:28;;;;;;;;;;;9.30;99.90;;;7.62;100.00;99896.66;5034295;28;19935;-86
2022/02/04 10:28:56;;;;;;;;;;;9.30;99.90;;;7.61;100.00;99892.25;5034004;28;20622;-86
2022/02/04 10:31:25;;;;;;;;;;;9.40;99.90;;;7.64;100.00;99886.47;5035114;28;19933;-87
2022/02/04 10:33:59;;;;;;;;;;;9.40;99.90;;;7.64;100.00;99876.47;5035413;28;19967;-87
2022/02/04 10:36:41;;;;;;;;;;;9.40;99.90;;;7.64;100.00;99873.78;5034253;28;19960;-87
2022/02/04 10:39:30;;;;;;;;;;;9.40;99.90;;;7.76;100.00;99870.63;5033917;28;19929;-88
2022/02/04 10:42:14;;;;;;;;;;;9.40;99.90;;;7.77;100.00;99872.34;5032602;28;19964;-86
2022/02/04 10:44:55;;;;;;;;;;;9.50;99.90;;;7.77;100.00;99865.03;5036191;28;19933;-87
2022/02/04 10:47:43;;;;;;;;;;;9.50;99.90;;;7.79;100.00;99864.88;5033479;28;19928;-87
2022/02/04 10:50:39;;;;;;;;;;;9.50;99.90;;;7.74;100.00;99861.84;5027419;28;19929;-88
2022/02/04 10:53:27;;;;;;;;;;;9.50;99.90;;;7.81;100.00;99858.22;5035718;28;20047;-87
2022/02/04 10:56:18;;;;;;;;;;;9.50;99.90;;;7.78;100.00;99857.75;5031842;28;20006;-88
2022/02/04 10:59:07;;;;;;;;;;;9.50;99.90;;;7.77;100.00;99851.50;5028847;28;19928;-86
2022/02/04 11:01:47;;;;;;;;;;;9.50;99.90;;;7.74;100.00;99859.13;5031165;28;19925;-87
2022/02/04 11:04:23;;;;;;;;;;;9.50;99.90;;;7.70;100.00;99853.25;5030339;28;19925;-86
2022/02/04 11:07:08;;;;;;;;;;;9.50;99.90;;;7.77;100.00;99851.50;5032423;28;19925;-88
2022/02/04 11:09:49;;;;;;;;;;;9.50;99.90;;;7.84;100.00;99840.75;5034393;28;19925;-86
2022/02/04 11:21:47;;;;;;;;;;;9.50;99.90;;;7.88;100.00;99843.94;5030069;28;20054;-86
2022/02/04 11:35:24;;;;;;;;;;;9.70;99.90;;;8.08;100.00;99774.66;5034538;28;20014;-87
2022/02/04 11:44:13;;;;;;;;;;;9.70;99.90;;;8.04;100.00;99786.88;5034296;28;19928;-87
2022/02/04 11:52:33;;;;;;;;;;;9.70;99.90;;;8.09;100.00;99757.38;5027559;28;19932;-87
2022/02/04 11:55:01;;;;;;;;;;;9.70;99.90;;;8.12;100.00;99756.97;5035202;28;19929;-87
2022/02/04 11:57:31;;;;;;;;;;;9.70;99.90;;;8.04;100.00;99738.13;5031202;28;20051;-87
2022/02/04 12:00:05;;;;;;;;;;;9.70;99.90;;;7.95;100.00;99729.22;5030916;28;19951;-88
2022/02/04 12:02:41;;;;;;;;;;;9.70;99.90;;;7.91;100.00;99737.94;5033085;28;19936;-87
2022/02/04 12:05:33;;;;;;;;;;;9.60;99.90;;;7.82;100.00;99748.88;5030503;28;19933;-88
2022/02/04 12:08:23;;;;;;;;;;;9.60;99.90;;;7.92;100.00;99740.47;5030624;28;19932;-87
2022/02/04 12:10:52;;;;;;;;;;;9.60;99.90;;;7.90;100.00;99730.81;5035916;28;19925;-85
2022/02/04 12:13:21;;;;;;;;;;;9.60;99.90;;;7.79;100.00;99705.88;5031139;28;20015;-87
2022/02/04 12:15:54;;;;;;;;;;;9.60;99.90;;;7.76;100.00;99717.06;5031990;28;20020;-89
2022/02/04 12:18:23;;;;;;;;;;;9.60;99.90;;;7.79;100.00;99697.75;5034590;28;19937;-86
2022/02/04 12:21:01;;;;;;;;;;;9.60;99.90;;;7.83;100.00;99701.78;5027570;28;19929;-87
2022/02/04 12:23:49;;;;;;;;;;;9.60;99.90;;;7.89;100.00;99691.22;5029812;28;19929;-86
2022/02/04 12:26:22;;;;;;;;;;;9.60;99.90;;;7.99;100.00;99697.19;5029518;28;19937;-87
2022/02/04 12:28:53;;;;;;;;;;;9.60;99.90;;;7.96;100.00;99681.31;5022973;28;20053;-87
2022/02/04 12:31:24;;;;;;;;;;;9.60;99.90;;;7.94;100.00;99673.38;5024665;28;19984;-86
2022/02/04 12:33:55;;;;;;;;;;;9.60;99.90;;;7.89;100.00;99677.69;5024153;28;20450;-87
2022/02/04 12:36:24;;;;;;;;;;;9.50;99.90;;;7.88;100.00;99673.28;5028403;28;19974;-86
2022/02/04 12:38:55;;;;;;;;;;;9.60;99.90;;;7.88;100.00;99673.28;5029312;28;19929;-86
2022/02/04 12:41:24;;;;;;;;;;;9.60;99.90;;;7.88;100.00;99648.88;5027602;28;19982;-87
2022/02/04 12:43:54;;;;;;;;;;;9.60;99.90;;;7.89;100.00;99666.84;5031805;28;19933;-86
2022/02/04 12:46:22;;;;;;;;;;;9.60;99.90;;;7.83;100.00;99661.13;5028487;28;20032;-86
2022/02/04 12:48:57;;;;;;;;;;;9.60;99.90;;;7.82;100.00;99656.75;5033080;28;20649;-86
2022/02/04 12:51:41;;;;;;;;;;;9.60;99.90;;;7.82;100.00;99654.06;5030234;28;20406;-87
2022/02/04 12:54:14;;;;;;;;;;;9.60;99.90;;;7.83;100.00;99644.06;5031551;28;19933;-88
2022/02/04 12:57:15;;;;;;;;;;;9.60;99.90;;;7.79;100.00;99632.75;5033519;28;19933;-89
2022/02/04 12:59:54;;;;;;;;;;;9.50;99.90;;;7.75;100.00;99630.59;5028351;28;19935;-88
2022/02/04 13:02:35;;;;;;;;;;;9.50;99.90;;;7.74;100.00;99624.34;5028405;28;19931;-87
2022/02/04 13:08:09;;;;;;;;;;;9.50;99.90;;;7.80;100.00;99612.75;5034706;28;20048;-92
2022/02/04 13:10:44;;;;;;;;;;;9.50;99.90;;;7.85;100.00;99608.66;5034841;28;20403;-90
2022/02/04 13:13:16;;;;;;;;;;;9.50;99.90;;;7.86;100.00;99603.03;5037220;28;20425;-88
2022/02/04 13:15:48;;;;;;;;;;;9.50;99.90;;;7.85;100.00;99600.53;5031410;28;19935;-90
2022/02/04 13:18:23;;;;;;;;;;;9.50;99.90;;;7.83;100.00;99569.03;5027295;28;19936;-89
2022/02/04 13:20:56;;;;;;;;;;;9.50;99.90;;;7.90;100.00;99585.38;5031413;28;19972;-89
2022/02/04 13:23:36;;;;;;;;;;;9.60;99.90;;;7.92;100.00;99587.88;5030755;28;19975;-89
2022/02/04 13:26:29;;;;;;;;;;;9.60;99.90;;;7.91;100.00;99581.63;5029758;28;19942;-89
2022/02/04 13:29:27;;;;;;;;;;;9.60;99.90;;;7.91;100.00;99570.78;5033399;28;19925;-91
2022/02/04 13:32:23;;;;;;;;;;;9.60;99.90;;;7.97;100.00;99575.44;5032406;28;20393;-88
2022/02/04 13:34:58;;;;;;;;;;;9.60;99.90;;;8.02;100.00;99561.34;5034135;28;19928;-89
2022/02/04 13:37:32;;;;;;;;;;;9.60;99.90;;;8.00;100.00;99566.94;5032950;28;19936;-89
2022/02/04 13:40:09;;;;;;;;;;;9.60;99.90;;;8.03;100.00;99557.59;5027338;28;20012;-89
2022/02/04 13:42:48;;;;;;;;;;;9.70;99.90;;;8.12;100.00;99551.00;5031516;28;19932;-88
2022/02/04 13:45:43;;;;;;;;;;;9.70;99.90;;;8.14;100.00;99551.66;5028827;28;19936;-90
2022/02/04 13:48:42;;;;;;;;;;;9.80;99.90;;;8.16;100.00;99544.16;5031413;28;19932;-88
2022/02/04 13:51:40;;;;;;;;;;;9.80;99.90;;;8.19;100.00;99545.69;5029852;28;19932;-88
2022/02/04 13:54:29;;;;;;;;;;;9.80;99.90;;;8.26;100.00;99534.88;5030948;28;19929;-90
2022/02/04 13:57:16;;;;;;;;;;;9.90;99.90;;;8.25;99.65;99528.63;5034171;28;19929;-90
2022/02/04 14:00:25;;;;;;;;;;;9.80;99.90;;;8.29;99.76;99534.50;5028562;28;20462;-88
2022/02/04 14:03:15;;;;;;;;;;;9.90;99.90;;;8.31;100.00;99521.59;5034056;28;20585;-89
2022/02/04 14:05:56;;;;;;;;;;;9.90;99.90;;;8.29;99.98;99523.66;5023288;28;19929;-89
2022/02/04 14:08:30;;;;;;;;;;;9.90;99.90;;;8.30;100.00;99511.78;5043019;28;19929;-90
2022/02/04 14:13:33;;;;;;;;;;;9.90;99.90;;;8.31;100.00;99491.78;1499765;22;20581;-92
2022/02/04 14:16:05;;;;;;;;;;;9.90;99.90;;;8.28;100.00;99478.59;5042131;28;20043;-93
2022/02/04 14:18:34;;;;;;;;;;;9.90;99.90;;;8.23;100.00;99471.91;5039483;28;20317;-94
2022/02/04 14:21:17;;;;;;;;;;;9.90;99.90;;;8.18;100.00;99452.66;5137607;22;19936;-92
2022/02/04 14:23:46;;;;;;;;;;;9.90;99.90;;;8.25;100.00;99451.91;5043220;28;19936;-88
2022/02/04 14:26:21;;;;;;;;;;;9.90;99.90;;;8.26;100.00;99453.56;5040391;28;19939;-89
2022/02/04 14:28:52;;;;;;;;;;;9.90;99.90;;;8.19;99.48;99462.50;5020615;28;19932;-92
2022/02/04 14:31:26;;;;;;;;;;;9.80;99.90;;;8.18;100.00;99459.97;5042819;28;19928;-90
2022/02/04 14:36:55;;;;;;;;;;;9.80;99.90;;;8.13;100.00;99444.31;5043588;28;20095;-91
2022/02/04 14:53:14;;;;;;;;;;;9.80;99.90;;;8.08;100.00;99441.34;4995320;28;19963;-93
2022/02/04 14:58:44;;;;;;;;;;;9.80;99.90;;;7.94;100.00;99442.22;5000286;28;19929;-94
2022/02/04 15:01:17;;;;;;;;;;;9.70;99.90;;;7.82;100.00;99431.94;5043110;28;19935;-92
2022/02/04 15:03:54;;;;;;;;;;;9.70;99.90;;;7.81;100.00;99441.09;5038155;28;19990;-93
2022/02/04 15:06:28;;;;;;;;;;;9.60;99.90;;;7.76;100.00;99419.16;5039820;28;20470;-90
2022/02/04 15:09:19;;;;;;;;;;;9.60;99.90;;;7.66;100.00;99415.94;5041948;28;20027;-92
2022/02/04 15:11:46;;;;;;;;;;;9.60;99.90;;;7.58;100.00;99403.34;5051117;28;20431;-92
2022/02/04 15:14:15;;;;;;;;;;;9.60;99.90;;;7.60;100.00;99405.88;5043316;28;19944;-90
2022/02/04 15:16:44;;;;;;;;;;;9.50;99.90;;;7.56;100.00;99413.53;5045029;28;19933;-93
2022/02/04 15:19:12;;;;;;;;;;;9.50;99.90;;;7.55;100.00;99397.50;5041061;28;19929;-92
2022/02/04 15:21:41;;;;;;;;;;;9.50;99.90;;;7.61;100.00;99412.97;5031132;28;19925;-89
2022/02/04 15:24:10;;;;;;;;;;;9.50;99.90;;;7.67;100.00;99400.53;5069752;23;19924;-85
2022/02/04 15:26:39;;;;;;;;;;;9.50;99.90;;;7.60;100.00;99408.59;5031929;28;20023;-88
2022/02/04 15:29:09;;;;;;;;;;;9.50;99.90;;;7.55;100.00;99403.72;5055248;28;19990;-90
2022/02/04 15:31:42;;;;;;;;;;;9.40;99.90;;;7.45;100.00;99405.94;5069537;28;19936;-89
2022/02/04 15:34:10;;;;;;;;;;;9.40;99.90;;;7.47;100.00;99409.28;5063508;28;19935;-89
2022/02/04 15:36:43;;;;;;;;;;;9.40;99.90;;;7.51;100.00;99407.03;5050118;28;20011;-89
2022/02/04 15:39:12;;;;;;;;;;;9.30;99.90;;;7.43;100.00;99410.69;5053622;28;19928;-88
2022/02/04 15:41:41;;;;;;;;;;;9.30;99.90;;;7.46;100.00;99409.47;5056497;28;19990;-89
2022/02/04 15:44:14;;;;;;;;;;;9.30;99.90;;;7.53;100.00;99415.78;5059043;28;19951;-87
2022/02/04 15:49:57;;;;;;;;;;;9.30;99.90;;;7.43;100.00;99411.53;5096109;27;20345;-87
2022/02/04 15:52:44;;;;;;;;;;;9.20;99.90;;;7.43;100.00;99411.53;5097057;28;20430;-87
2022/02/04 15:58:24;;;;;;;;;;;9.20;99.90;;;7.31;100.00;99410.38;5083446;28;19954;-87
2022/02/04 16:01:15;;;;;;;;;;;9.20;99.90;;;7.32;100.00;99414.72;5082615;28;19929;-87
2022/02/04 16:03:59;;;;;;;;;;;9.20;99.90;;;7.28;100.00;99410.72;5081388;28;19950;-87
2022/02/04 16:06:27;;;;;;;;;;;9.20;99.90;;;7.24;100.00;99409.44;5066265;28;19933;-87